sensor_id;sensor_type;location;lat;lon;timestamp;temperature;humidity
37378;DHT22;23248;48.120;14.854;2022-12-07T00:01:36;4.00;99.90
37378;DHT22;23248;48.120;14.854;2022-12-07T00:04:03;4.00;99.90
37378;DHT22;23248;48.120;14.854;2022-12-07T00:06:30;4.00;99.90
37378;DHT22;23248;48.120;14.854;2022-12-07T00:08:56;4.10;99.90
37378;DHT22;23248;48.120;14.854;2022-12-07T00:11:22;4.10;99.90
37378;DHT22;23248;48.120;14.854;2022-12-07T00:13:51;4.10;99.90
37378;DHT22;23248;48.120;14.854;2022-12-07T00:16:18;4.10;99.90
37378;DHT22;23248;48.120;14.854;2022-12-07T00:18:44;4.10;99.90
37378;DHT22;23248;48.120;14.854;2022-12-07T00:21:11;4.10;99.90
37378;DHT22;23248;48.120;14.854;2022-12-07T00:23:37;4.10;99.90
37378;DHT22;23248;48.120;14.854;2022-12-07T00:26:04;4.10;99.90
37378;DHT22;23248;48.120;14.854;2022-12-07T00:28:30;4.10;99.90
37378;DHT22;23248;48.120;14.854;2022-12-07T00:31:11;4.10;99.90
37378;DHT22;23248;48.120;14.854;2022-12-07T00:33:37;4.10;99.90
37378;DHT22;23248;48.120;14.854;2022-12-07T00:36:04;4.10;99.90
37378;DHT22;23248;48.120;14.854;2022-12-07T00:38:31;4.10;99.90
37378;DHT22;23248;48.120;14.854;2022-12-07T00:40:58;4.10;99.90
37378;DHT22;23248;48.120;14.854;2022-12-07T00:43:24;4.10;99.90
37378;DHT22;23248;48.120;14.854;2022-12-07T00:45:49;4.10;99.90
37378;DHT22;23248;48.120;14.854;2022-12-07T00:48:15;4.10;99.90
37378;DHT22;23248;48.120;14.854;2022-12-07T00:50:41;4.10;99.90
37378;DHT22;23248;48.120;14.854;2022-12-07T00:53:06;4.10;99.90
37378;DHT22;23248;48.120;14.854;2022-12-07T00:55:35;4.10;99.90
37378;DHT22;23248;48.120;14.854;2022-12-07T00:58:01;4.10;99.90
37378;DHT22;23248;48.120;14.854;2022-12-07T01:00:27;4.00;99.90
37378;DHT22;23248;48.120;14.854;2022-12-07T01:02:52;4.10;99.90
37378;DHT22;23248;48.120;14.854;2022-12-07T01:05:18;4.10;99.90
37378;DHT22;23248;48.120;14.854;2022-12-07T01:07:44;4.10;99.90
37378;DHT22;23248;48.120;14.854;2022-12-07T01:10:09;4.10;99.90
37378;DHT22;23248;48.120;14.854;2022-12-07T01:12:35;4.10;99.90
37378;DHT22;23248;48.120;14.854;2022-12-07T01:15:00;4.10;99.90
37378;DHT22;23248;48.120;14.854;2022-12-07T01:17:26;4.10;99.90
37378;DHT22;23248;48.120;14.854;2022-12-07T01:19:53;4.10;99.90
37378;DHT22;23248;48.120;14.854;2022-12-07T01:22:18;4.10;99.90
37378;DHT22;23248;48.120;14.854;2022-12-07T01:24:44;4.10;99.90
37378;DHT22;23248;48.120;14.854;2022-12-07T01:27:12;4.10;99.90
37378;DHT22;23248;48.120;14.854;2022-12-07T01:29:38;4.10;99.90
37378;DHT22;23248;48.120;14.854;2022-12-07T01:32:03;4.00;99.90
37378;DHT22;23248;48.120;14.854;2022-12-07T01:34:29;4.10;99.90
37378;DHT22;23248;48.120;14.854;2022-12-07T01:36:54;4.10;99.90
37378;DHT22;23248;48.120;14.854;2022-12-07T01:39:20;4.10;99.90
37378;DHT22;23248;48.120;14.854;2022-12-07T01:41:45;4.10;99.90
37378;DHT22;23248;48.120;14.854;2022-12-07T01:44:19;4.10;99.90
37378;DHT22;23248;48.120;14.854;2022-12-07T01:49:14;4.10;99.90
37378;DHT22;23248;48.120;14.854;2022-12-07T01:51:41;4.10;99.90
37378;DHT22;23248;48.120;14.854;2022-12-07T01:54:08;4.10;99.90
37378;DHT22;23248;48.120;14.854;2022-12-07T01:56:34;4.10;99.90
37378;DHT22;23248;48.120;14.854;2022-12-07T01:59:01;4.10;99.90
37378;DHT22;23248;48.120;14.854;2022-12-07T02:01:27;4.10;99.90
37378;DHT22;23248;48.120;14.854;2022-12-07T02:03:53;4.00;99.90
37378;DHT22;23248;48.120;14.854;2022-12-07T02:06:20;4.00;99.90
37378;DHT22;23248;48.120;14.854;2022-12-07T02:08:46;3.90;99.90
37378;DHT22;23248;48.120;14.854;2022-12-07T02:11:12;3.90;99.90
37378;DHT22;23248;48.120;14.854;2022-12-07T02:13:38;3.90;99.90
37378;DHT22;23248;48.120;14.854;2022-12-07T02:32:11;3.80;99.90
37378;DHT22;23248;48.120;14.854;2022-12-07T02:34:55;3.80;99.90
37378;DHT22;23248;48.120;14.854;2022-12-07T02:37:34;3.80;99.90
37378;DHT22;23248;48.120;14.854;2022-12-07T02:40:09;3.80;99.90
37378;DHT22;23248;48.120;14.854;2022-12-07T02:42:37;3.80;99.90
37378;DHT22;23248;48.120;14.854;2022-12-07T02:45:04;3.80;99.90
37378;DHT22;23248;48.120;14.854;2022-12-07T02:47:30;3.80;99.90
37378;DHT22;23248;48.120;14.854;2022-12-07T02:49:57;3.80;99.90
37378;DHT22;23248;48.120;14.854;2022-12-07T02:52:22;3.80;99.90
37378;DHT22;23248;48.120;14.854;2022-12-07T02:54:48;3.80;99.90
37378;DHT22;23248;48.120;14.854;2022-12-07T03:05:13;3.80;99.90
37378;DHT22;23248;48.120;14.854;2022-12-07T03:13:03;3.80;99.90
37378;DHT22;23248;48.120;14.854;2022-12-07T03:15:41;3.80;99.90
37378;DHT22;23248;48.120;14.854;2022-12-07T03:18:07;3.80;99.90
37378;DHT22;23248;48.120;14.854;2022-12-07T03:20:33;3.70;99.90
37378;DHT22;23248;48.120;14.854;2022-12-07T03:23:00;3.70;99.90
37378;DHT22;23248;48.120;14.854;2022-12-07T03:25:28;3.70;99.90
37378;DHT22;23248;48.120;14.854;2022-12-07T03:27:56;3.70;99.90
37378;DHT22;23248;48.120;14.854;2022-12-07T03:30:23;3.70;99.90
37378;DHT22;23248;48.120;14.854;2022-12-07T03:35:23;3.70;99.90
37378;DHT22;23248;48.120;14.854;2022-12-07T03:37:54;3.70;99.90
37378;DHT22;23248;48.120;14.854;2022-12-07T03:42:49;3.70;99.90
37378;DHT22;23248;48.120;14.854;2022-12-07T03:45:16;3.70;99.90
37378;DHT22;23248;48.120;14.854;2022-12-07T03:47:53;3.70;99.90
37378;DHT22;23248;48.120;14.854;2022-12-07T03:50:29;3.70;99.90
37378;DHT22;23248;48.120;14.854;2022-12-07T03:53:18;3.70;99.90
37378;DHT22;23248;48.120;14.854;2022-12-07T03:55:44;3.70;99.90
37378;DHT22;23248;48.120;14.854;2022-12-07T03:58:12;3.70;99.90
37378;DHT22;23248;48.120;14.854;2022-12-07T04:00:40;3.70;99.90
37378;DHT22;23248;48.120;14.854;2022-12-07T04:03:06;3.70;99.90
37378;DHT22;23248;48.120;14.854;2022-12-07T04:05:32;3.60;99.90
37378;DHT22;23248;48.120;14.854;2022-12-07T04:07:57;3.70;99.90
37378;DHT22;23248;48.120;14.854;2022-12-07T04:10:23;3.60;99.90
37378;DHT22;23248;48.120;14.854;2022-12-07T04:12:48;3.60;99.90
37378;DHT22;23248;48.120;14.854;2022-12-07T04:15:14;3.60;99.90
37378;DHT22;23248;48.120;14.854;2022-12-07T04:17:39;3.60;99.90
37378;DHT22;23248;48.120;14.854;2022-12-07T04:20:05;3.60;99.90
37378;DHT22;23248;48.120;14.854;2022-12-07T04:22:31;3.50;99.90
37378;DHT22;23248;48.120;14.854;2022-12-07T04:24:56;3.50;99.90
37378;DHT22;23248;48.120;14.854;2022-12-07T04:27:22;3.50;99.90
37378;DHT22;23248;48.120;14.854;2022-12-07T04:29:47;3.50;99.90
37378;DHT22;23248;48.120;14.854;2022-12-07T04:32:13;3.50;99.90
37378;DHT22;23248;48.120;14.854;2022-12-07T04:34:38;3.50;99.90
37378;DHT22;23248;48.120;14.854;2022-12-07T04:37:04;3.50;99.90
37378;DHT22;23248;48.120;14.854;2022-12-07T04:39:32;3.50;99.90
37378;DHT22;23248;48.120;14.854;2022-12-07T04:41:58;3.50;99.90
37378;DHT22;23248;48.120;14.854;2022-12-07T04:44:24;3.50;99.90
37378;DHT22;23248;48.120;14.854;2022-12-07T04:46:50;3.50;99.90
37378;DHT22;23248;48.120;14.854;2022-12-07T04:49:16;3.50;99.90
37378;DHT22;23248;48.120;14.854;2022-12-07T04:51:42;3.50;99.90
37378;DHT22;23248;48.120;14.854;2022-12-07T04:54:08;3.50;99.90
37378;DHT22;23248;48.120;14.854;2022-12-07T04:56:34;3.50;99.90
37378;DHT22;23248;48.120;14.854;2022-12-07T04:59:00;3.50;99.90
37378;DHT22;23248;48.120;14.854;2022-12-07T05:01:26;3.50;99.90
37378;DHT22;23248;48.120;14.854;2022-12-07T05:03:52;3.40;99.90
37378;DHT22;23248;48.120;14.854;2022-12-07T05:06:17;3.50;99.90
37378;DHT22;23248;48.120;14.854;2022-12-07T05:08:43;3.50;99.90
37378;DHT22;23248;48.120;14.854;2022-12-07T05:11:09;3.50;99.90
37378;DHT22;23248;48.120;14.854;2022-12-07T05:13:55;3.50;99.90
37378;DHT22;23248;48.120;14.854;2022-12-07T05:16:21;3.50;99.90
37378;DHT22;23248;48.120;14.854;2022-12-07T05:18:46;3.50;99.90
37378;DHT22;23248;48.120;14.854;2022-12-07T05:21:12;3.50;99.90
37378;DHT22;23248;48.120;14.854;2022-12-07T05:23:37;3.50;99.90
37378;DHT22;23248;48.120;14.854;2022-12-07T05:26:03;3.50;99.90
37378;DHT22;23248;48.120;14.854;2022-12-07T05:28:28;3.50;99.90
37378;DHT22;23248;48.120;14.854;2022-12-07T05:30:54;3.40;99.90
37378;DHT22;23248;48.120;14.854;2022-12-07T05:33:19;3.50;99.90
37378;DHT22;23248;48.120;14.854;2022-12-07T05:35:45;3.40;99.90
37378;DHT22;23248;48.120;14.854;2022-12-07T05:38:10;3.40;99.90
37378;DHT22;23248;48.120;14.854;2022-12-07T05:40:36;3.40;99.90
37378;DHT22;23248;48.120;14.854;2022-12-07T05:43:02;3.40;99.90
37378;DHT22;23248;48.120;14.854;2022-12-07T05:45:27;3.40;99.90
37378;DHT22;23248;48.120;14.854;2022-12-07T05:47:53;3.40;99.90
37378;DHT22;23248;48.120;14.854;2022-12-07T05:50:18;3.40;99.90
37378;DHT22;23248;48.120;14.854;2022-12-07T05:52:44;3.40;99.90
37378;DHT22;23248;48.120;14.854;2022-12-07T05:55:09;3.40;99.90
37378;DHT22;23248;48.120;14.854;2022-12-07T05:57:35;3.40;99.90
37378;DHT22;23248;48.120;14.854;2022-12-07T06:00:01;3.40;99.90
37378;DHT22;23248;48.120;14.854;2022-12-07T06:02:26;3.40;99.90
37378;DHT22;23248;48.120;14.854;2022-12-07T06:04:52;3.40;99.90
37378;DHT22;23248;48.120;14.854;2022-12-07T06:07:17;3.40;99.90
37378;DHT22;23248;48.120;14.854;2022-12-07T06:09:43;3.40;99.90
37378;DHT22;23248;48.120;14.854;2022-12-07T06:12:12;3.40;99.90
37378;DHT22;23248;48.120;14.854;2022-12-07T06:14:56;3.30;99.90
37378;DHT22;23248;48.120;14.854;2022-12-07T06:17:22;3.40;99.90
37378;DHT22;23248;48.120;14.854;2022-12-07T06:19:47;3.40;99.90
37378;DHT22;23248;48.120;14.854;2022-12-07T06:22:13;3.30;99.90
37378;DHT22;23248;48.120;14.854;2022-12-07T06:24:39;3.30;99.90
37378;DHT22;23248;48.120;14.854;2022-12-07T06:27:05;3.30;99.90
37378;DHT22;23248;48.120;14.854;2022-12-07T06:29:31;3.30;99.90
37378;DHT22;23248;48.120;14.854;2022-12-07T06:31:56;3.30;99.90
37378;DHT22;23248;48.120;14.854;2022-12-07T06:34:23;3.30;99.90
37378;DHT22;23248;48.120;14.854;2022-12-07T06:36:49;3.40;99.90
37378;DHT22;23248;48.120;14.854;2022-12-07T06:39:24;3.30;99.90
37378;DHT22;23248;48.120;14.854;2022-12-07T06:41:50;3.40;99.90
37378;DHT22;23248;48.120;14.854;2022-12-07T06:44:17;3.30;99.90
37378;DHT22;23248;48.120;14.854;2022-12-07T06:46:43;3.30;99.90
37378;DHT22;23248;48.120;14.854;2022-12-07T06:49:08;3.30;99.90
37378;DHT22;23248;48.120;14.854;2022-12-07T06:51:34;3.30;99.90
37378;DHT22;23248;48.120;14.854;2022-12-07T06:54:09;3.30;99.90
37378;DHT22;23248;48.120;14.854;2022-12-07T06:56:35;3.30;99.90
37378;DHT22;23248;48.120;14.854;2022-12-07T06:59:01;3.30;99.90
37378;DHT22;23248;48.120;14.854;2022-12-07T07:01:27;3.30;99.90
37378;DHT22;23248;48.120;14.854;2022-12-07T07:03:53;3.30;99.90
37378;DHT22;23248;48.120;14.854;2022-12-07T07:06:18;3.40;99.90
37378;DHT22;23248;48.120;14.854;2022-12-07T07:08:44;3.40;99.90
37378;DHT22;23248;48.120;14.854;2022-12-07T07:11:10;3.40;99.90
37378;DHT22;23248;48.120;14.854;2022-12-07T07:13:35;3.40;99.90
37378;DHT22;23248;48.120;14.854;2022-12-07T07:16:01;3.40;99.90
37378;DHT22;23248;48.120;14.854;2022-12-07T07:18:27;3.40;99.90
37378;DHT22;23248;48.120;14.854;2022-12-07T07:20:52;3.40;99.90
37378;DHT22;23248;48.120;14.854;2022-12-07T07:23:19;3.40;99.90
37378;DHT22;23248;48.120;14.854;2022-12-07T07:25:45;3.40;99.90
37378;DHT22;23248;48.120;14.854;2022-12-07T07:28:10;3.50;99.90
37378;DHT22;23248;48.120;14.854;2022-12-07T07:30:36;3.50;99.90
37378;DHT22;23248;48.120;14.854;2022-12-07T07:33:02;3.50;99.90
37378;DHT22;23248;48.120;14.854;2022-12-07T07:35:28;3.50;99.90
37378;DHT22;23248;48.120;14.854;2022-12-07T07:37:54;3.50;99.90
37378;DHT22;23248;48.120;14.854;2022-12-07T07:40:20;3.60;99.90
37378;DHT22;23248;48.120;14.854;2022-12-07T07:42:52;3.60;99.90
37378;DHT22;23248;48.120;14.854;2022-12-07T07:45:18;3.60;99.90
37378;DHT22;23248;48.120;14.854;2022-12-07T07:47:44;3.60;99.90
37378;DHT22;23248;48.120;14.854;2022-12-07T07:50:10;3.60;99.90
37378;DHT22;23248;48.120;14.854;2022-12-07T07:52:35;3.70;99.90
37378;DHT22;23248;48.120;14.854;2022-12-07T07:55:01;3.70;99.90
37378;DHT22;23248;48.120;14.854;2022-12-07T07:57:27;3.70;99.90
37378;DHT22;23248;48.120;14.854;2022-12-07T07:59:52;3.60;99.90
37378;DHT22;23248;48.120;14.854;2022-12-07T08:02:19;3.70;99.90
37378;DHT22;23248;48.120;14.854;2022-12-07T08:04:45;3.70;99.90
37378;DHT22;23248;48.120;14.854;2022-12-07T08:07:11;3.70;99.90
37378;DHT22;23248;48.120;14.854;2022-12-07T08:09:37;3.70;99.90
37378;DHT22;23248;48.120;14.854;2022-12-07T08:12:03;3.70;99.90
37378;DHT22;23248;48.120;14.854;2022-12-07T08:14:30;3.70;99.90
37378;DHT22;23248;48.120;14.854;2022-12-07T08:16:56;3.70;99.90
37378;DHT22;23248;48.120;14.854;2022-12-07T08:19:22;3.70;99.90
37378;DHT22;23248;48.120;14.854;2022-12-07T08:21:47;3.80;99.90
37378;DHT22;23248;48.120;14.854;2022-12-07T08:24:13;3.80;99.90
37378;DHT22;23248;48.120;14.854;2022-12-07T08:26:39;3.80;99.90
37378;DHT22;23248;48.120;14.854;2022-12-07T08:29:04;3.80;99.90
37378;DHT22;23248;48.120;14.854;2022-12-07T08:31:30;3.90;99.90
37378;DHT22;23248;48.120;14.854;2022-12-07T08:33:55;3.90;99.90
37378;DHT22;23248;48.120;14.854;2022-12-07T08:36:21;3.90;99.90
37378;DHT22;23248;48.120;14.854;2022-12-07T08:38:50;3.90;99.90
37378;DHT22;23248;48.120;14.854;2022-12-07T08:41:15;3.90;99.90
37378;DHT22;23248;48.120;14.854;2022-12-07T08:43:41;4.00;99.90
37378;DHT22;23248;48.120;14.854;2022-12-07T08:46:15;4.00;99.90
37378;DHT22;23248;48.120;14.854;2022-12-07T08:51:27;4.10;99.90
37378;DHT22;23248;48.120;14.854;2022-12-07T08:53:53;4.10;99.90
37378;DHT22;23248;48.120;14.854;2022-12-07T08:56:19;4.10;99.90
37378;DHT22;23248;48.120;14.854;2022-12-07T08:58:45;4.10;99.90
37378;DHT22;23248;48.120;14.854;2022-12-07T09:01:10;4.10;99.90
37378;DHT22;23248;48.120;14.854;2022-12-07T09:03:36;4.20;99.90
37378;DHT22;23248;48.120;14.854;2022-12-07T09:06:02;4.20;99.90
37378;DHT22;23248;48.120;14.854;2022-12-07T09:08:37;4.30;99.90
37378;DHT22;23248;48.120;14.854;2022-12-07T09:11:04;4.30;99.90
37378;DHT22;23248;48.120;14.854;2022-12-07T09:13:30;4.30;99.90
37378;DHT22;23248;48.120;14.854;2022-12-07T09:15:55;4.40;99.90
37378;DHT22;23248;48.120;14.854;2022-12-07T09:18:21;4.40;99.90
37378;DHT22;23248;48.120;14.854;2022-12-07T09:20:47;4.50;99.90
37378;DHT22;23248;48.120;14.854;2022-12-07T09:23:12;4.50;99.90
37378;DHT22;23248;48.120;14.854;2022-12-07T09:25:38;4.50;99.90
37378;DHT22;23248;48.120;14.854;2022-12-07T09:28:04;4.50;99.90
37378;DHT22;23248;48.120;14.854;2022-12-07T09:30:29;4.50;99.90
37378;DHT22;23248;48.120;14.854;2022-12-07T09:32:56;4.50;99.90
37378;DHT22;23248;48.120;14.854;2022-12-07T09:35:22;4.40;99.90
37378;DHT22;23248;48.120;14.854;2022-12-07T09:37:47;4.50;99.90
37378;DHT22;23248;48.120;14.854;2022-12-07T09:40:13;4.50;99.90
37378;DHT22;23248;48.120;14.854;2022-12-07T09:42:41;4.60;99.90
37378;DHT22;23248;48.120;14.854;2022-12-07T09:45:17;4.60;99.90
37378;DHT22;23248;48.120;14.854;2022-12-07T09:47:44;4.60;99.90
37378;DHT22;23248;48.120;14.854;2022-12-07T09:50:14;4.60;99.90
37378;DHT22;23248;48.120;14.854;2022-12-07T09:52:41;4.60;99.90
37378;DHT22;23248;48.120;14.854;2022-12-07T09:55:13;4.60;99.90
37378;DHT22;23248;48.120;14.854;2022-12-07T09:57:39;4.60;99.90
37378;DHT22;23248;48.120;14.854;2022-12-07T10:00:07;4.60;99.90
37378;DHT22;23248;48.120;14.854;2022-12-07T10:02:38;4.70;99.90
37378;DHT22;23248;48.120;14.854;2022-12-07T10:05:05;4.70;99.90
37378;DHT22;23248;48.120;14.854;2022-12-07T10:07:31;4.80;99.90
37378;DHT22;23248;48.120;14.854;2022-12-07T10:09:56;4.80;99.90
37378;DHT22;23248;48.120;14.854;2022-12-07T10:12:22;4.90;99.90
37378;DHT22;23248;48.120;14.854;2022-12-07T10:15:00;4.90;99.90
37378;DHT22;23248;48.120;14.854;2022-12-07T10:22:36;4.80;99.90
37378;DHT22;23248;48.120;14.854;2022-12-07T10:25:09;5.00;99.90
37378;DHT22;23248;48.120;14.854;2022-12-07T10:27:34;4.90;99.90
37378;DHT22;23248;48.120;14.854;2022-12-07T10:30:01;5.00;99.90
37378;DHT22;23248;48.120;14.854;2022-12-07T10:32:33;5.00;99.90
37378;DHT22;23248;48.120;14.854;2022-12-07T10:35:19;5.00;99.90
37378;DHT22;23248;48.120;14.854;2022-12-07T10:37:45;5.00;99.90
37378;DHT22;23248;48.120;14.854;2022-12-07T10:42:59;5.00;99.90
37378;DHT22;23248;48.120;14.854;2022-12-07T10:45:25;5.00;99.90
37378;DHT22;23248;48.120;14.854;2022-12-07T10:48:08;5.00;99.90
37378;DHT22;23248;48.120;14.854;2022-12-07T11:01:10;5.00;99.90
37378;DHT22;23248;48.120;14.854;2022-12-07T11:03:46;5.00;99.90
37378;DHT22;23248;48.120;14.854;2022-12-07T11:06:30;5.10;99.90
37378;DHT22;23248;48.120;14.854;2022-12-07T11:14:03;5.20;99.90
37378;DHT22;23248;48.120;14.854;2022-12-07T11:24:16;5.10;99.90
37378;DHT22;23248;48.120;14.854;2022-12-07T11:32:16;5.10;99.90
37378;DHT22;23248;48.120;14.854;2022-12-07T11:37:32;5.10;99.90
37378;DHT22;23248;48.120;14.854;2022-12-07T11:40:05;5.10;99.90
37378;DHT22;23248;48.120;14.854;2022-12-07T11:42:38;5.10;99.90
37378;DHT22;23248;48.120;14.854;2022-12-07T11:47:48;5.20;99.90
37378;DHT22;23248;48.120;14.854;2022-12-07T11:53:09;5.10;99.90
37378;DHT22;23248;48.120;14.854;2022-12-07T11:58:37;5.00;99.90
37378;DHT22;23248;48.120;14.854;2022-12-07T12:03:48;5.10;99.90
37378;DHT22;23248;48.120;14.854;2022-12-07T12:06:14;5.20;99.90
37378;DHT22;23248;48.120;14.854;2022-12-07T12:16:34;5.70;99.90
37378;DHT22;23248;48.120;14.854;2022-12-07T12:21:29;5.80;99.90
37378;DHT22;23248;48.120;14.854;2022-12-07T12:26:26;5.80;99.90
37378;DHT22;23248;48.120;14.854;2022-12-07T12:29:03;5.80;99.90
37378;DHT22;23248;48.120;14.854;2022-12-07T12:31:39;5.70;99.90
37378;DHT22;23248;48.120;14.854;2022-12-07T12:36:55;5.60;99.90
37378;DHT22;23248;48.120;14.854;2022-12-07T12:39:22;5.60;99.90
37378;DHT22;23248;48.120;14.854;2022-12-07T12:41:52;5.40;99.90
37378;DHT22;23248;48.120;14.854;2022-12-07T12:51:45;5.10;99.90
37378;DHT22;23248;48.120;14.854;2022-12-07T13:01:46;5.00;99.90
37378;DHT22;23248;48.120;14.854;2022-12-07T13:06:58;5.00;99.90
37378;DHT22;23248;48.120;14.854;2022-12-07T13:09:25;5.00;99.90
37378;DHT22;23248;48.120;14.854;2022-12-07T13:12:02;5.00;99.90
37378;DHT22;23248;48.120;14.854;2022-12-07T13:14:39;5.00;99.90
37378;DHT22;23248;48.120;14.854;2022-12-07T13:17:09;5.00;99.90
37378;DHT22;23248;48.120;14.854;2022-12-07T13:24:54;5.00;99.90
37378;DHT22;23248;48.120;14.854;2022-12-07T13:27:21;5.00;99.90
37378;DHT22;23248;48.120;14.854;2022-12-07T13:29:46;5.00;99.90
37378;DHT22;23248;48.120;14.854;2022-12-07T13:32:46;5.10;99.90
37378;DHT22;23248;48.120;14.854;2022-12-07T13:37:49;5.10;99.90
37378;DHT22;23248;48.120;14.854;2022-12-07T13:40:17;5.10;99.90
37378;DHT22;23248;48.120;14.854;2022-12-07T13:42:43;5.10;99.90
37378;DHT22;23248;48.120;14.854;2022-12-07T13:45:23;5.10;99.90
37378;DHT22;23248;48.120;14.854;2022-12-07T13:48:11;5.00;99.90
37378;DHT22;23248;48.120;14.854;2022-12-07T13:50:38;5.00;99.90
37378;DHT22;23248;48.120;14.854;2022-12-07T13:53:07;5.00;99.90
37378;DHT22;23248;48.120;14.854;2022-12-07T13:55:36;5.00;99.90
37378;DHT22;23248;48.120;14.854;2022-12-07T13:58:09;4.90;99.90
37378;DHT22;23248;48.120;14.854;2022-12-07T14:00:35;4.90;99.90
37378;DHT22;23248;48.120;14.854;2022-12-07T14:05:29;4.90;99.90
37378;DHT22;23248;48.120;14.854;2022-12-07T14:07:59;4.90;99.90
37378;DHT22;23248;48.120;14.854;2022-12-07T14:12:50;4.80;99.90
37378;DHT22;23248;48.120;14.854;2022-12-07T14:15:23;4.80;99.90
37378;DHT22;23248;48.120;14.854;2022-12-07T14:17:50;4.80;99.90
37378;DHT22;23248;48.120;14.854;2022-12-07T14:20:34;4.80;99.90
37378;DHT22;23248;48.120;14.854;2022-12-07T14:23:00;4.80;99.90
37378;DHT22;23248;48.120;14.854;2022-12-07T14:25:46;4.70;99.90
37378;DHT22;23248;48.120;14.854;2022-12-07T14:30:50;4.80;99.90
37378;DHT22;23248;48.120;14.854;2022-12-07T14:33:22;4.70;99.90
37378;DHT22;23248;48.120;14.854;2022-12-07T14:35:49;4.70;99.90
37378;DHT22;23248;48.120;14.854;2022-12-07T14:38:14;4.70;99.90
37378;DHT22;23248;48.120;14.854;2022-12-07T14:40:40;4.60;99.90
37378;DHT22;23248;48.120;14.854;2022-12-07T14:43:08;4.60;99.90
37378;DHT22;23248;48.120;14.854;2022-12-07T14:45:36;4.60;99.90
37378;DHT22;23248;48.120;14.854;2022-12-07T14:48:01;4.60;99.90
37378;DHT22;23248;48.120;14.854;2022-12-07T14:50:27;4.40;99.90
37378;DHT22;23248;48.120;14.854;2022-12-07T14:52:56;4.40;99.90
37378;DHT22;23248;48.120;14.854;2022-12-07T14:55:27;4.30;99.90
37378;DHT22;23248;48.120;14.854;2022-12-07T14:57:53;4.30;99.90
37378;DHT22;23248;48.120;14.854;2022-12-07T15:00:19;4.20;99.90
37378;DHT22;23248;48.120;14.854;2022-12-07T15:02:45;4.10;99.90
37378;DHT22;23248;48.120;14.854;2022-12-07T15:05:12;4.00;99.90
37378;DHT22;23248;48.120;14.854;2022-12-07T15:07:38;4.00;99.90
37378;DHT22;23248;48.120;14.854;2022-12-07T15:10:04;3.90;99.90
37378;DHT22;23248;48.120;14.854;2022-12-07T15:12:30;3.90;99.90
37378;DHT22;23248;48.120;14.854;2022-12-07T15:14:55;3.80;99.90
37378;DHT22;23248;48.120;14.854;2022-12-07T15:17:21;3.70;99.90
37378;DHT22;23248;48.120;14.854;2022-12-07T15:19:46;3.60;99.90
37378;DHT22;23248;48.120;14.854;2022-12-07T15:22:12;3.60;99.90
37378;DHT22;23248;48.120;14.854;2022-12-07T15:24:37;3.60;99.90
37378;DHT22;23248;48.120;14.854;2022-12-07T15:27:03;3.50;99.90
37378;DHT22;23248;48.120;14.854;2022-12-07T15:29:29;3.50;99.90
37378;DHT22;23248;48.120;14.854;2022-12-07T15:31:54;3.50;99.90
37378;DHT22;23248;48.120;14.854;2022-12-07T15:34:20;3.50;99.90
37378;DHT22;23248;48.120;14.854;2022-12-07T15:36:46;3.50;99.90
37378;DHT22;23248;48.120;14.854;2022-12-07T15:39:11;3.60;99.90
37378;DHT22;23248;48.120;14.854;2022-12-07T15:41:37;3.60;99.90
37378;DHT22;23248;48.120;14.854;2022-12-07T15:44:03;3.60;99.90
37378;DHT22;23248;48.120;14.854;2022-12-07T15:46:47;3.50;99.90
37378;DHT22;23248;48.120;14.854;2022-12-07T15:49:13;3.50;99.90
37378;DHT22;23248;48.120;14.854;2022-12-07T15:51:39;3.50;99.90
37378;DHT22;23248;48.120;14.854;2022-12-07T15:54:05;3.40;99.90
37378;DHT22;23248;48.120;14.854;2022-12-07T15:56:31;3.30;99.90
37378;DHT22;23248;48.120;14.854;2022-12-07T15:58:56;3.30;99.90
37378;DHT22;23248;48.120;14.854;2022-12-07T16:01:22;3.30;99.90
37378;DHT22;23248;48.120;14.854;2022-12-07T16:03:48;3.20;99.90
37378;DHT22;23248;48.120;14.854;2022-12-07T16:06:17;3.00;99.90
37378;DHT22;23248;48.120;14.854;2022-12-07T16:08:45;2.90;99.90
37378;DHT22;23248;48.120;14.854;2022-12-07T16:11:11;2.80;99.90
37378;DHT22;23248;48.120;14.854;2022-12-07T16:13:37;2.70;99.90
37378;DHT22;23248;48.120;14.854;2022-12-07T16:16:03;2.70;99.90
37378;DHT22;23248;48.120;14.854;2022-12-07T16:18:29;2.70;99.90
37378;DHT22;23248;48.120;14.854;2022-12-07T16:20:55;2.80;99.90
37378;DHT22;23248;48.120;14.854;2022-12-07T16:23:20;2.80;99.90
37378;DHT22;23248;48.120;14.854;2022-12-07T16:25:46;2.80;99.90
37378;DHT22;23248;48.120;14.854;2022-12-07T16:28:11;2.70;99.90
37378;DHT22;23248;48.120;14.854;2022-12-07T16:30:37;2.70;99.90
37378;DHT22;23248;48.120;14.854;2022-12-07T16:33:02;2.60;99.90
37378;DHT22;23248;48.120;14.854;2022-12-07T16:35:28;2.60;99.90
37378;DHT22;23248;48.120;14.854;2022-12-07T16:37:53;2.60;99.90
37378;DHT22;23248;48.120;14.854;2022-12-07T16:40:19;2.60;99.90
37378;DHT22;23248;48.120;14.854;2022-12-07T16:42:45;2.50;99.90
37378;DHT22;23248;48.120;14.854;2022-12-07T16:45:10;2.40;99.90
37378;DHT22;23248;48.120;14.854;2022-12-07T16:47:37;2.40;99.90
37378;DHT22;23248;48.120;14.854;2022-12-07T16:50:03;2.30;99.90
37378;DHT22;23248;48.120;14.854;2022-12-07T16:52:29;2.30;99.90
37378;DHT22;23248;48.120;14.854;2022-12-07T16:54:54;2.30;99.90
37378;DHT22;23248;48.120;14.854;2022-12-07T16:57:20;2.30;99.90
37378;DHT22;23248;48.120;14.854;2022-12-07T16:59:46;2.20;99.90
37378;DHT22;23248;48.120;14.854;2022-12-07T17:02:11;2.20;99.90
37378;DHT22;23248;48.120;14.854;2022-12-07T17:04:37;2.20;99.90
37378;DHT22;23248;48.120;14.854;2022-12-07T17:07:05;2.20;99.90
37378;DHT22;23248;48.120;14.854;2022-12-07T17:09:31;2.20;99.90
37378;DHT22;23248;48.120;14.854;2022-12-07T17:11:56;2.20;99.90
37378;DHT22;23248;48.120;14.854;2022-12-07T17:14:22;2.10;99.90
37378;DHT22;23248;48.120;14.854;2022-12-07T17:17:06;2.10;99.90
37378;DHT22;23248;48.120;14.854;2022-12-07T17:19:32;2.00;99.90
37378;DHT22;23248;48.120;14.854;2022-12-07T17:21:58;1.90;99.90
37378;DHT22;23248;48.120;14.854;2022-12-07T17:24:23;1.90;99.90
37378;DHT22;23248;48.120;14.854;2022-12-07T17:26:49;1.90;99.90
37378;DHT22;23248;48.120;14.854;2022-12-07T17:29:15;1.90;99.90
37378;DHT22;23248;48.120;14.854;2022-12-07T17:31:41;1.90;99.90
37378;DHT22;23248;48.120;14.854;2022-12-07T17:34:10;1.90;99.90
37378;DHT22;23248;48.120;14.854;2022-12-07T17:36:36;2.00;99.90
37378;DHT22;23248;48.120;14.854;2022-12-07T17:39:06;1.90;99.90
37378;DHT22;23248;48.120;14.854;2022-12-07T17:41:32;2.00;99.90
37378;DHT22;23248;48.120;14.854;2022-12-07T17:44:17;2.00;99.90
37378;DHT22;23248;48.120;14.854;2022-12-07T17:46:46;2.00;99.90
37378;DHT22;23248;48.120;14.854;2022-12-07T17:49:12;2.00;99.90
37378;DHT22;23248;48.120;14.854;2022-12-07T17:51:38;2.00;99.90